sensor_id;sensor_type;location;lat;lon;timestamp;P1;durP1;ratioP1;P2;durP2;ratioP2
36651;SDS011;53334;51.976;20.144;2024-02-26T00:00:38;22.77;;;15.18;;
36651;SDS011;53334;51.976;20.144;2024-02-26T00:03:12;22.20;;;14.90;;
36651;SDS011;53334;51.976;20.144;2024-02-26T00:05:45;22.88;;;15.35;;
36651;SDS011;53334;51.976;20.144;2024-02-26T00:08:19;24.83;;;16.63;;
36651;SDS011;53334;51.976;20.144;2024-02-26T00:10:52;25.40;;;15.70;;
36651;SDS011;53334;51.976;20.144;2024-02-26T00:13:25;23.75;;;15.30;;
36651;SDS011;53334;51.976;20.144;2024-02-26T00:16:00;22.98;;;15.63;;
36651;SDS011;53334;51.976;20.144;2024-02-26T00:18:33;24.60;;;16.70;;
36651;SDS011;53334;51.976;20.144;2024-02-26T00:21:07;22.42;;;15.75;;
36651;SDS011;53334;51.976;20.144;2024-02-26T00:23:40;20.63;;;15.70;;
36651;SDS011;53334;51.976;20.144;2024-02-26T00:26:13;25.67;;;16.48;;
36651;SDS011;53334;51.976;20.144;2024-02-26T00:28:46;25.95;;;16.33;;
36651;SDS011;53334;51.976;20.144;2024-02-26T00:31:21;21.95;;;15.27;;
36651;SDS011;53334;51.976;20.144;2024-02-26T00:33:54;24.60;;;15.80;;
36651;SDS011;53334;51.976;20.144;2024-02-26T00:39:01;24.05;;;15.75;;
36651;SDS011;53334;51.976;20.144;2024-02-26T00:41:38;23.70;;;15.50;;
36651;SDS011;53334;51.976;20.144;2024-02-26T00:44:11;21.48;;;14.90;;
36651;SDS011;53334;51.976;20.144;2024-02-26T00:46:46;24.05;;;16.48;;
36651;SDS011;53334;51.976;20.144;2024-02-26T00:49:19;26.08;;;16.17;;
36651;SDS011;53334;51.976;20.144;2024-02-26T00:51:52;21.85;;;14.38;;
36651;SDS011;53334;51.976;20.144;2024-02-26T00:54:26;23.17;;;15.82;;
36651;SDS011;53334;51.976;20.144;2024-02-26T00:56:59;24.13;;;17.23;;
36651;SDS011;53334;51.976;20.144;2024-02-26T00:59:32;22.75;;;15.23;;
36651;SDS011;53334;51.976;20.144;2024-02-26T01:02:06;23.73;;;15.25;;
36651;SDS011;53334;51.976;20.144;2024-02-26T01:04:40;23.00;;;15.23;;
36651;SDS011;53334;51.976;20.144;2024-02-26T01:07:13;23.00;;;14.63;;
36651;SDS011;53334;51.976;20.144;2024-02-26T01:09:46;21.67;;;15.23;;
36651;SDS011;53334;51.976;20.144;2024-02-26T01:12:20;22.60;;;15.50;;
36651;SDS011;53334;51.976;20.144;2024-02-26T01:14:53;23.95;;;14.65;;
36651;SDS011;53334;51.976;20.144;2024-02-26T01:17:28;20.15;;;14.38;;
36651;SDS011;53334;51.976;20.144;2024-02-26T01:20:01;21.85;;;14.75;;
36651;SDS011;53334;51.976;20.144;2024-02-26T01:22:35;19.55;;;13.68;;
36651;SDS011;53334;51.976;20.144;2024-02-26T01:25:08;20.55;;;14.40;;
36651;SDS011;53334;51.976;20.144;2024-02-26T01:27:42;21.58;;;14.40;;
36651;SDS011;53334;51.976;20.144;2024-02-26T01:30:15;21.98;;;14.43;;
36651;SDS011;53334;51.976;20.144;2024-02-26T01:32:50;21.20;;;14.18;;
36651;SDS011;53334;51.976;20.144;2024-02-26T01:35:23;22.33;;;14.55;;
36651;SDS011;53334;51.976;20.144;2024-02-26T01:37:57;23.00;;;14.60;;
36651;SDS011;53334;51.976;20.144;2024-02-26T01:40:31;20.63;;;14.45;;
36651;SDS011;53334;51.976;20.144;2024-02-26T01:43:04;20.35;;;14.15;;
36651;SDS011;53334;51.976;20.144;2024-02-26T01:45:37;23.27;;;14.02;;
36651;SDS011;53334;51.976;20.144;2024-02-26T01:48:12;22.25;;;14.23;;
36651;SDS011;53334;51.976;20.144;2024-02-26T01:50:45;17.98;;;13.75;;
36651;SDS011;53334;51.976;20.144;2024-02-26T01:53:19;19.10;;;13.25;;
36651;SDS011;53334;51.976;20.144;2024-02-26T01:58:25;24.83;;;14.18;;
36651;SDS011;53334;51.976;20.144;2024-02-26T02:00:59;22.50;;;14.45;;
36651;SDS011;53334;51.976;20.144;2024-02-26T02:03:34;19.02;;;13.65;;
36651;SDS011;53334;51.976;20.144;2024-02-26T02:06:09;21.45;;;14.48;;
36651;SDS011;53334;51.976;20.144;2024-02-26T02:08:42;20.42;;;13.50;;
36651;SDS011;53334;51.976;20.144;2024-02-26T02:11:16;21.83;;;13.63;;
36651;SDS011;53334;51.976;20.144;2024-02-26T02:13:49;19.58;;;13.20;;
36651;SDS011;53334;51.976;20.144;2024-02-26T02:16:23;17.05;;;12.50;;
36651;SDS011;53334;51.976;20.144;2024-02-26T02:18:57;18.98;;;13.88;;
36651;SDS011;53334;51.976;20.144;2024-02-26T02:21:32;20.50;;;14.57;;
36651;SDS011;53334;51.976;20.144;2024-02-26T02:24:05;21.55;;;13.55;;
36651;SDS011;53334;51.976;20.144;2024-02-26T02:26:39;19.85;;;13.35;;
36651;SDS011;53334;51.976;20.144;2024-02-26T02:29:13;20.88;;;13.48;;
36651;SDS011;53334;51.976;20.144;2024-02-26T02:31:47;21.50;;;13.10;;
36651;SDS011;53334;51.976;20.144;2024-02-26T02:34:21;17.80;;;13.77;;
36651;SDS011;53334;51.976;20.144;2024-02-26T02:36:56;18.88;;;13.52;;
36651;SDS011;53334;51.976;20.144;2024-02-26T02:39:29;18.10;;;13.30;;
36651;SDS011;53334;51.976;20.144;2024-02-26T02:42:03;17.42;;;12.63;;
36651;SDS011;53334;51.976;20.144;2024-02-26T02:47:09;18.40;;;13.75;;
36651;SDS011;53334;51.976;20.144;2024-02-26T02:49:42;17.77;;;12.48;;
36651;SDS011;53334;51.976;20.144;2024-02-26T02:52:17;17.48;;;12.98;;
36651;SDS011;53334;51.976;20.144;2024-02-26T02:54:50;18.23;;;12.23;;
36651;SDS011;53334;51.976;20.144;2024-02-26T02:57:23;18.85;;;13.00;;
36651;SDS011;53334;51.976;20.144;2024-02-26T02:59:57;20.35;;;11.98;;
36651;SDS011;53334;51.976;20.144;2024-02-26T03:02:30;16.77;;;12.38;;
36651;SDS011;53334;51.976;20.144;2024-02-26T03:05:03;16.70;;;11.75;;
36651;SDS011;53334;51.976;20.144;2024-02-26T03:07:38;15.85;;;12.25;;
36651;SDS011;53334;51.976;20.144;2024-02-26T03:10:12;19.38;;;13.00;;
36651;SDS011;53334;51.976;20.144;2024-02-26T03:12:45;17.17;;;13.48;;
36651;SDS011;53334;51.976;20.144;2024-02-26T03:15:18;17.70;;;12.55;;
36651;SDS011;53334;51.976;20.144;2024-02-26T03:17:51;17.77;;;12.48;;
36651;SDS011;53334;51.976;20.144;2024-02-26T03:20:28;16.75;;;12.65;;
36651;SDS011;53334;51.976;20.144;2024-02-26T03:23:03;17.55;;;12.80;;
36651;SDS011;53334;51.976;20.144;2024-02-26T03:25:36;18.80;;;13.55;;
36651;SDS011;53334;51.976;20.144;2024-02-26T03:28:09;17.38;;;13.35;;
36651;SDS011;53334;51.976;20.144;2024-02-26T03:30:43;19.02;;;12.70;;
36651;SDS011;53334;51.976;20.144;2024-02-26T03:33:16;17.95;;;12.88;;
36651;SDS011;53334;51.976;20.144;2024-02-26T03:35:49;16.52;;;11.68;;
36651;SDS011;53334;51.976;20.144;2024-02-26T03:38:24;17.48;;;12.48;;
36651;SDS011;53334;51.976;20.144;2024-02-26T03:40:57;14.93;;;11.63;;
36651;SDS011;53334;51.976;20.144;2024-02-26T03:43:30;16.80;;;12.27;;
36651;SDS011;53334;51.976;20.144;2024-02-26T03:46:07;16.58;;;11.85;;
36651;SDS011;53334;51.976;20.144;2024-02-26T03:48:41;16.77;;;11.68;;
36651;SDS011;53334;51.976;20.144;2024-02-26T03:51:14;16.63;;;11.85;;
36651;SDS011;53334;51.976;20.144;2024-02-26T03:53:49;15.90;;;12.07;;
36651;SDS011;53334;51.976;20.144;2024-02-26T03:56:22;17.42;;;11.88;;
36651;SDS011;53334;51.976;20.144;2024-02-26T03:58:55;15.73;;;11.65;;
36651;SDS011;53334;51.976;20.144;2024-02-26T04:01:30;15.07;;;11.70;;
36651;SDS011;53334;51.976;20.144;2024-02-26T04:04:04;17.55;;;12.63;;
36651;SDS011;53334;51.976;20.144;2024-02-26T04:06:38;17.48;;;13.05;;
36651;SDS011;53334;51.976;20.144;2024-02-26T04:09:13;16.55;;;11.90;;
36651;SDS011;53334;51.976;20.144;2024-02-26T04:11:47;16.08;;;11.40;;
36651;SDS011;53334;51.976;20.144;2024-02-26T04:14:20;14.05;;;10.90;;
36651;SDS011;53334;51.976;20.144;2024-02-26T04:16:54;13.30;;;10.98;;
36651;SDS011;53334;51.976;20.144;2024-02-26T04:19:27;15.52;;;11.15;;
36651;SDS011;53334;51.976;20.144;2024-02-26T04:22:01;13.57;;;11.20;;
36651;SDS011;53334;51.976;20.144;2024-02-26T04:24:37;15.73;;;11.55;;
36651;SDS011;53334;51.976;20.144;2024-02-26T04:27:10;17.02;;;11.70;;
36651;SDS011;53334;51.976;20.144;2024-02-26T04:29:43;16.73;;;11.55;;
36651;SDS011;53334;51.976;20.144;2024-02-26T04:32:16;17.15;;;12.25;;
36651;SDS011;53334;51.976;20.144;2024-02-26T04:34:50;15.10;;;11.88;;
36651;SDS011;53334;51.976;20.144;2024-02-26T04:37:23;16.08;;;12.20;;
36651;SDS011;53334;51.976;20.144;2024-02-26T04:39:58;14.65;;;10.13;;
36651;SDS011;53334;51.976;20.144;2024-02-26T04:42:32;16.30;;;11.98;;
36651;SDS011;53334;51.976;20.144;2024-02-26T04:45:06;14.80;;;11.05;;
36651;SDS011;53334;51.976;20.144;2024-02-26T04:47:39;15.40;;;12.13;;
36651;SDS011;53334;51.976;20.144;2024-02-26T04:50:13;13.50;;;10.82;;
36651;SDS011;53334;51.976;20.144;2024-02-26T04:52:46;13.00;;;9.82;;
36651;SDS011;53334;51.976;20.144;2024-02-26T04:55:21;15.48;;;11.93;;
36651;SDS011;53334;51.976;20.144;2024-02-26T04:57:54;13.50;;;11.25;;
36651;SDS011;53334;51.976;20.144;2024-02-26T05:00:27;17.23;;;11.93;;
36651;SDS011;53334;51.976;20.144;2024-02-26T05:03:00;16.27;;;11.52;;
36651;SDS011;53334;51.976;20.144;2024-02-26T05:05:34;17.67;;;11.20;;
36651;SDS011;53334;51.976;20.144;2024-02-26T05:08:07;15.15;;;11.35;;
36651;SDS011;53334;51.976;20.144;2024-02-26T05:10:41;17.67;;;11.80;;
36651;SDS011;53334;51.976;20.144;2024-02-26T05:13:15;15.35;;;11.30;;
36651;SDS011;53334;51.976;20.144;2024-02-26T05:15:49;15.95;;;11.60;;
36651;SDS011;53334;51.976;20.144;2024-02-26T05:18:23;15.07;;;11.50;;
36651;SDS011;53334;51.976;20.144;2024-02-26T05:20:57;14.15;;;10.93;;
36651;SDS011;53334;51.976;20.144;2024-02-26T05:23:30;16.67;;;12.20;;
36651;SDS011;53334;51.976;20.144;2024-02-26T05:26:05;16.58;;;11.63;;
36651;SDS011;53334;51.976;20.144;2024-02-26T05:28:38;15.02;;;11.43;;
36651;SDS011;53334;51.976;20.144;2024-02-26T05:31:14;13.98;;;11.30;;
36651;SDS011;53334;51.976;20.144;2024-02-26T05:33:48;14.40;;;10.85;;
36651;SDS011;53334;51.976;20.144;2024-02-26T05:36:21;15.38;;;11.43;;
36651;SDS011;53334;51.976;20.144;2024-02-26T05:38:54;15.23;;;11.50;;
36651;SDS011;53334;51.976;20.144;2024-02-26T05:41:30;15.27;;;11.68;;
36651;SDS011;53334;51.976;20.144;2024-02-26T05:44:04;14.52;;;11.30;;
36651;SDS011;53334;51.976;20.144;2024-02-26T05:46:41;17.08;;;12.15;;
36651;SDS011;53334;51.976;20.144;2024-02-26T05:49:14;16.40;;;11.98;;
36651;SDS011;53334;51.976;20.144;2024-02-26T05:54:21;15.48;;;11.73;;
36651;SDS011;53334;51.976;20.144;2024-02-26T05:56:56;20.75;;;12.07;;
36651;SDS011;53334;51.976;20.144;2024-02-26T05:59:29;17.95;;;12.38;;
36651;SDS011;53334;51.976;20.144;2024-02-26T06:02:02;15.60;;;12.15;;
36651;SDS011;53334;51.976;20.144;2024-02-26T06:07:10;16.20;;;12.23;;
36651;SDS011;53334;51.976;20.144;2024-02-26T06:09:43;20.48;;;13.38;;
36651;SDS011;53334;51.976;20.144;2024-02-26T06:12:18;17.25;;;12.90;;
36651;SDS011;53334;51.976;20.144;2024-02-26T06:14:51;20.65;;;12.80;;
36651;SDS011;53334;51.976;20.144;2024-02-26T06:17:24;15.65;;;12.50;;
36651;SDS011;53334;51.976;20.144;2024-02-26T06:19:57;17.77;;;12.35;;
36651;SDS011;53334;51.976;20.144;2024-02-26T06:22:32;17.23;;;12.18;;
36651;SDS011;53334;51.976;20.144;2024-02-26T06:25:05;19.40;;;12.68;;
36651;SDS011;53334;51.976;20.144;2024-02-26T06:27:40;26.15;;;13.68;;
36651;SDS011;53334;51.976;20.144;2024-02-26T06:30:14;22.00;;;12.80;;
36651;SDS011;53334;51.976;20.144;2024-02-26T06:32:47;20.52;;;13.73;;
36651;SDS011;53334;51.976;20.144;2024-02-26T06:35:20;20.40;;;14.10;;
36651;SDS011;53334;51.976;20.144;2024-02-26T06:37:53;20.83;;;13.27;;
36651;SDS011;53334;51.976;20.144;2024-02-26T06:40:27;24.52;;;13.98;;
36651;SDS011;53334;51.976;20.144;2024-02-26T06:43:02;35.22;;;13.68;;
36651;SDS011;53334;51.976;20.144;2024-02-26T06:45:40;28.52;;;14.52;;
36651;SDS011;53334;51.976;20.144;2024-02-26T06:48:15;29.05;;;13.57;;
36651;SDS011;53334;51.976;20.144;2024-02-26T06:50:50;22.67;;;12.70;;
36651;SDS011;53334;51.976;20.144;2024-02-26T06:53:23;27.92;;;14.13;;
36651;SDS011;53334;51.976;20.144;2024-02-26T06:55:57;25.80;;;14.10;;
36651;SDS011;53334;51.976;20.144;2024-02-26T06:58:31;34.72;;;14.88;;
36651;SDS011;53334;51.976;20.144;2024-02-26T07:01:05;32.78;;;15.75;;
36651;SDS011;53334;51.976;20.144;2024-02-26T07:03:40;28.70;;;14.55;;
36651;SDS011;53334;51.976;20.144;2024-02-26T07:06:13;21.75;;;13.50;;
36651;SDS011;53334;51.976;20.144;2024-02-26T07:08:46;26.10;;;16.30;;
36651;SDS011;53334;51.976;20.144;2024-02-26T07:11:20;27.17;;;14.65;;
36651;SDS011;53334;51.976;20.144;2024-02-26T07:13:54;25.85;;;14.85;;
36651;SDS011;53334;51.976;20.144;2024-02-26T07:16:27;25.98;;;14.73;;
36651;SDS011;53334;51.976;20.144;2024-02-26T07:19:01;39.80;;;15.68;;
36651;SDS011;53334;51.976;20.144;2024-02-26T07:21:34;30.60;;;14.27;;
36651;SDS011;53334;51.976;20.144;2024-02-26T07:24:07;28.77;;;14.35;;
36651;SDS011;53334;51.976;20.144;2024-02-26T07:26:41;26.67;;;15.30;;
36651;SDS011;53334;51.976;20.144;2024-02-26T07:29:15;31.65;;;14.82;;
36651;SDS011;53334;51.976;20.144;2024-02-26T07:31:49;29.80;;;16.77;;
36651;SDS011;53334;51.976;20.144;2024-02-26T07:34:22;23.73;;;13.43;;
36651;SDS011;53334;51.976;20.144;2024-02-26T07:37:02;28.15;;;14.73;;
36651;SDS011;53334;51.976;20.144;2024-02-26T07:39:35;30.10;;;13.88;;
36651;SDS011;53334;51.976;20.144;2024-02-26T07:42:09;25.75;;;13.82;;
36651;SDS011;53334;51.976;20.144;2024-02-26T07:44:45;27.08;;;14.00;;
36651;SDS011;53334;51.976;20.144;2024-02-26T07:47:18;24.70;;;13.77;;
36651;SDS011;53334;51.976;20.144;2024-02-26T07:49:52;27.13;;;14.80;;
36651;SDS011;53334;51.976;20.144;2024-02-26T07:52:25;28.30;;;14.27;;
36651;SDS011;53334;51.976;20.144;2024-02-26T07:54:58;27.38;;;14.75;;
36651;SDS011;53334;51.976;20.144;2024-02-26T07:57:36;22.30;;;15.25;;
36651;SDS011;53334;51.976;20.144;2024-02-26T08:00:12;27.33;;;15.35;;
36651;SDS011;53334;51.976;20.144;2024-02-26T08:02:48;22.60;;;13.25;;
36651;SDS011;53334;51.976;20.144;2024-02-26T08:05:21;22.35;;;14.52;;
36651;SDS011;53334;51.976;20.144;2024-02-26T08:07:54;21.88;;;14.40;;
36651;SDS011;53334;51.976;20.144;2024-02-26T08:10:29;18.63;;;14.75;;
36651;SDS011;53334;51.976;20.144;2024-02-26T08:13:04;14.85;;;12.48;;
36651;SDS011;53334;51.976;20.144;2024-02-26T08:15:38;19.58;;;14.07;;
36651;SDS011;53334;51.976;20.144;2024-02-26T08:18:12;19.98;;;14.18;;
36651;SDS011;53334;51.976;20.144;2024-02-26T08:20:46;19.55;;;13.93;;
36651;SDS011;53334;51.976;20.144;2024-02-26T08:23:20;19.63;;;13.98;;
36651;SDS011;53334;51.976;20.144;2024-02-26T08:25:54;19.92;;;14.23;;
36651;SDS011;53334;51.976;20.144;2024-02-26T08:28:27;22.00;;;14.27;;
36651;SDS011;53334;51.976;20.144;2024-02-26T08:36:09;22.10;;;14.00;;
36651;SDS011;53334;51.976;20.144;2024-02-26T08:38:44;20.80;;;14.43;;
36651;SDS011;53334;51.976;20.144;2024-02-26T08:41:17;22.98;;;13.77;;
36651;SDS011;53334;51.976;20.144;2024-02-26T08:43:50;22.02;;;15.15;;
36651;SDS011;53334;51.976;20.144;2024-02-26T08:46:25;24.75;;;14.73;;
36651;SDS011;53334;51.976;20.144;2024-02-26T08:48:58;19.90;;;13.13;;
36651;SDS011;53334;51.976;20.144;2024-02-26T08:51:31;20.25;;;14.05;;
36651;SDS011;53334;51.976;20.144;2024-02-26T08:54:04;20.23;;;14.25;;
36651;SDS011;53334;51.976;20.144;2024-02-26T08:56:38;18.33;;;13.15;;
36651;SDS011;53334;51.976;20.144;2024-02-26T08:59:11;17.00;;;12.98;;
36651;SDS011;53334;51.976;20.144;2024-02-26T09:04:19;19.05;;;12.02;;
36651;SDS011;53334;51.976;20.144;2024-02-26T09:06:52;19.13;;;12.85;;
36651;SDS011;53334;51.976;20.144;2024-02-26T09:09:26;19.95;;;11.98;;
36651;SDS011;53334;51.976;20.144;2024-02-26T09:11:59;17.60;;;12.02;;
36651;SDS011;53334;51.976;20.144;2024-02-26T09:14:32;14.38;;;11.18;;
36651;SDS011;53334;51.976;20.144;2024-02-26T09:17:07;15.52;;;11.68;;
36651;SDS011;53334;51.976;20.144;2024-02-26T09:19:40;16.02;;;11.65;;
36651;SDS011;53334;51.976;20.144;2024-02-26T09:22:15;15.82;;;11.73;;
36651;SDS011;53334;51.976;20.144;2024-02-26T09:24:49;13.98;;;10.40;;
36651;SDS011;53334;51.976;20.144;2024-02-26T09:27:25;14.13;;;10.85;;
36651;SDS011;53334;51.976;20.144;2024-02-26T09:29:58;17.45;;;10.55;;
36651;SDS011;53334;51.976;20.144;2024-02-26T09:32:32;16.30;;;10.23;;
36651;SDS011;53334;51.976;20.144;2024-02-26T09:35:06;21.55;;;11.43;;
36651;SDS011;53334;51.976;20.144;2024-02-26T09:40:14;13.73;;;10.80;;
36651;SDS011;53334;51.976;20.144;2024-02-26T09:42:47;13.90;;;10.85;;
36651;SDS011;53334;51.976;20.144;2024-02-26T09:45:26;11.80;;;9.13;;
36651;SDS011;53334;51.976;20.144;2024-02-26T09:48:02;11.27;;;9.68;;
36651;SDS011;53334;51.976;20.144;2024-02-26T09:50:41;14.80;;;10.70;;
36651;SDS011;53334;51.976;20.144;2024-02-26T09:53:15;17.00;;;10.80;;
36651;SDS011;53334;51.976;20.144;2024-02-26T09:55:50;13.13;;;9.80;;
36651;SDS011;53334;51.976;20.144;2024-02-26T09:58:24;14.82;;;10.40;;
36651;SDS011;53334;51.976;20.144;2024-02-26T10:01:00;12.70;;;9.20;;
36651;SDS011;53334;51.976;20.144;2024-02-26T10:03:38;12.25;;;8.88;;
36651;SDS011;53334;51.976;20.144;2024-02-26T10:06:13;13.77;;;9.50;;
36651;SDS011;53334;51.976;20.144;2024-02-26T10:08:47;13.13;;;9.65;;
36651;SDS011;53334;51.976;20.144;2024-02-26T10:11:21;11.52;;;9.45;;
36651;SDS011;53334;51.976;20.144;2024-02-26T10:13:56;12.45;;;9.23;;
36651;SDS011;53334;51.976;20.144;2024-02-26T10:16:29;11.25;;;9.05;;
36651;SDS011;53334;51.976;20.144;2024-02-26T10:24:12;10.18;;;8.40;;
36651;SDS011;53334;51.976;20.144;2024-02-26T10:26:47;11.07;;;8.15;;
36651;SDS011;53334;51.976;20.144;2024-02-26T10:29:20;11.88;;;8.48;;
36651;SDS011;53334;51.976;20.144;2024-02-26T10:31:54;13.23;;;9.85;;
36651;SDS011;53334;51.976;20.144;2024-02-26T10:34:29;10.38;;;8.48;;
36651;SDS011;53334;51.976;20.144;2024-02-26T10:37:04;13.88;;;8.27;;
36651;SDS011;53334;51.976;20.144;2024-02-26T10:39:38;10.40;;;8.07;;
36651;SDS011;53334;51.976;20.144;2024-02-26T10:42:12;11.35;;;7.90;;
36651;SDS011;53334;51.976;20.144;2024-02-26T10:44:46;13.88;;;7.93;;
36651;SDS011;53334;51.976;20.144;2024-02-26T10:49:55;11.23;;;8.27;;
36651;SDS011;53334;51.976;20.144;2024-02-26T10:52:29;12.25;;;8.10;;
36651;SDS011;53334;51.976;20.144;2024-02-26T10:55:05;16.67;;;7.72;;
36651;SDS011;53334;51.976;20.144;2024-02-26T10:57:39;15.13;;;7.38;;
36651;SDS011;53334;51.976;20.144;2024-02-26T11:00:15;9.27;;;6.75;;
36651;SDS011;53334;51.976;20.144;2024-02-26T11:02:49;16.20;;;7.97;;
36651;SDS011;53334;51.976;20.144;2024-02-26T11:05:25;11.02;;;6.93;;
36651;SDS011;53334;51.976;20.144;2024-02-26T11:07:58;9.18;;;7.43;;
36651;SDS011;53334;51.976;20.144;2024-02-26T11:10:32;8.43;;;7.05;;
36651;SDS011;53334;51.976;20.144;2024-02-26T11:13:06;11.55;;;6.90;;
36651;SDS011;53334;51.976;20.144;2024-02-26T11:15:42;11.00;;;6.43;;
36651;SDS011;53334;51.976;20.144;2024-02-26T11:18:16;10.40;;;6.57;;
36651;SDS011;53334;51.976;20.144;2024-02-26T11:20:54;11.68;;;6.30;;
36651;SDS011;53334;51.976;20.144;2024-02-26T11:23:29;7.22;;;5.72;;
36651;SDS011;53334;51.976;20.144;2024-02-26T11:26:04;7.93;;;6.05;;
36651;SDS011;53334;51.976;20.144;2024-02-26T11:28:40;8.07;;;5.90;;
36651;SDS011;53334;51.976;20.144;2024-02-26T11:31:13;7.72;;;5.88;;
36651;SDS011;53334;51.976;20.144;2024-02-26T11:36:21;8.82;;;6.57;;
36651;SDS011;53334;51.976;20.144;2024-02-26T11:38:57;10.15;;;6.13;;
36651;SDS011;53334;51.976;20.144;2024-02-26T11:41:30;9.73;;;6.00;;
36651;SDS011;53334;51.976;20.144;2024-02-26T11:44:04;8.90;;;5.40;;
36651;SDS011;53334;51.976;20.144;2024-02-26T11:46:39;12.15;;;6.75;;
36651;SDS011;53334;51.976;20.144;2024-02-26T11:49:29;9.82;;;6.50;;
36651;SDS011;53334;51.976;20.144;2024-02-26T11:52:07;12.73;;;5.82;;
36651;SDS011;53334;51.976;20.144;2024-02-26T11:54:44;9.98;;;6.35;;
36651;SDS011;53334;51.976;20.144;2024-02-26T11:57:25;7.28;;;5.13;;
36651;SDS011;53334;51.976;20.144;2024-02-26T12:00:10;11.60;;;6.30;;
36651;SDS011;53334;51.976;20.144;2024-02-26T12:05:20;12.45;;;5.80;;
36651;SDS011;53334;51.976;20.144;2024-02-26T12:07:59;10.05;;;5.80;;
36651;SDS011;53334;51.976;20.144;2024-02-26T12:10:39;11.38;;;5.55;;
36651;SDS011;53334;51.976;20.144;2024-02-26T12:13:14;6.95;;;5.75;;
36651;SDS011;53334;51.976;20.144;2024-02-26T12:15:54;8.75;;;6.57;;
36651;SDS011;53334;51.976;20.144;2024-02-26T12:18:29;10.60;;;6.15;;
36651;SDS011;53334;51.976;20.144;2024-02-26T12:21:04;15.40;;;6.07;;
36651;SDS011;53334;51.976;20.144;2024-02-26T12:23:39;10.52;;;6.07;;
36651;SDS011;53334;51.976;20.144;2024-02-26T12:26:12;8.68;;;6.45;;
36651;SDS011;53334;51.976;20.144;2024-02-26T12:28:46;11.32;;;8.13;;
36651;SDS011;53334;51.976;20.144;2024-02-26T12:31:19;9.45;;;6.50;;
36651;SDS011;53334;51.976;20.144;2024-02-26T12:33:53;10.80;;;7.10;;
36651;SDS011;53334;51.976;20.144;2024-02-26T12:36:27;7.50;;;6.70;;
36651;SDS011;53334;51.976;20.144;2024-02-26T12:39:02;9.13;;;6.38;;
36651;SDS011;53334;51.976;20.144;2024-02-26T12:41:37;7.47;;;6.28;;
36651;SDS011;53334;51.976;20.144;2024-02-26T12:44:11;11.90;;;7.68;;
36651;SDS011;53334;51.976;20.144;2024-02-26T12:46:45;10.10;;;8.20;;
36651;SDS011;53334;51.976;20.144;2024-02-26T12:49:19;12.65;;;7.60;;
36651;SDS011;53334;51.976;20.144;2024-02-26T12:51:52;17.42;;;8.40;;
36651;SDS011;53334;51.976;20.144;2024-02-26T12:54:28;14.60;;;8.88;;
36651;SDS011;53334;51.976;20.144;2024-02-26T12:57:03;10.77;;;7.18;;
36651;SDS011;53334;51.976;20.144;2024-02-26T12:59:38;10.57;;;7.32;;
36651;SDS011;53334;51.976;20.144;2024-02-26T13:02:12;14.48;;;6.80;;
36651;SDS011;53334;51.976;20.144;2024-02-26T13:04:46;8.45;;;6.72;;
36651;SDS011;53334;51.976;20.144;2024-02-26T13:07:20;15.57;;;7.38;;
36651;SDS011;53334;51.976;20.144;2024-02-26T13:09:55;8.63;;;6.75;;
36651;SDS011;53334;51.976;20.144;2024-02-26T13:12:28;8.60;;;6.97;;
36651;SDS011;53334;51.976;20.144;2024-02-26T13:15:02;7.85;;;5.50;;
36651;SDS011;53334;51.976;20.144;2024-02-26T13:17:36;9.02;;;6.88;;
36651;SDS011;53334;51.976;20.144;2024-02-26T13:20:09;12.82;;;7.53;;
36651;SDS011;53334;51.976;20.144;2024-02-26T13:22:43;10.93;;;6.65;;
36651;SDS011;53334;51.976;20.144;2024-02-26T13:25:21;8.80;;;7.10;;
36651;SDS011;53334;51.976;20.144;2024-02-26T13:28:04;10.23;;;6.78;;
36651;SDS011;53334;51.976;20.144;2024-02-26T13:30:38;8.75;;;6.65;;
36651;SDS011;53334;51.976;20.144;2024-02-26T13:33:12;9.77;;;7.70;;
36651;SDS011;53334;51.976;20.144;2024-02-26T13:35:46;13.27;;;6.70;;
36651;SDS011;53334;51.976;20.144;2024-02-26T13:38:19;9.65;;;7.38;;
36651;SDS011;53334;51.976;20.144;2024-02-26T13:40:54;16.40;;;6.60;;
36651;SDS011;53334;51.976;20.144;2024-02-26T13:43:28;16.95;;;7.15;;
36651;SDS011;53334;51.976;20.144;2024-02-26T13:46:01;12.18;;;6.25;;
36651;SDS011;53334;51.976;20.144;2024-02-26T13:51:08;19.30;;;6.87;;
36651;SDS011;53334;51.976;20.144;2024-02-26T13:53:42;11.50;;;7.40;;
36651;SDS011;53334;51.976;20.144;2024-02-26T13:56:17;9.60;;;6.80;;
36651;SDS011;53334;51.976;20.144;2024-02-26T13:58:50;12.38;;;7.18;;
36651;SDS011;53334;51.976;20.144;2024-02-26T14:01:23;9.45;;;6.32;;
36651;SDS011;53334;51.976;20.144;2024-02-26T14:03:56;11.40;;;6.13;;
36651;SDS011;53334;51.976;20.144;2024-02-26T14:06:32;15.00;;;6.15;;
36651;SDS011;53334;51.976;20.144;2024-02-26T14:09:06;9.68;;;6.18;;
36651;SDS011;53334;51.976;20.144;2024-02-26T14:11:40;11.02;;;5.55;;
36651;SDS011;53334;51.976;20.144;2024-02-26T14:14:14;11.00;;;6.07;;
36651;SDS011;53334;51.976;20.144;2024-02-26T14:16:47;9.85;;;6.13;;
36651;SDS011;53334;51.976;20.144;2024-02-26T14:19:20;7.18;;;6.05;;
36651;SDS011;53334;51.976;20.144;2024-02-26T14:21:53;9.13;;;6.22;;
36651;SDS011;53334;51.976;20.144;2024-02-26T14:24:27;6.40;;;5.55;;
36651;SDS011;53334;51.976;20.144;2024-02-26T14:27:01;9.90;;;6.57;;
36651;SDS011;53334;51.976;20.144;2024-02-26T14:29:35;9.00;;;5.47;;
36651;SDS011;53334;51.976;20.144;2024-02-26T14:32:11;6.97;;;5.80;;
36651;SDS011;53334;51.976;20.144;2024-02-26T14:34:44;7.00;;;6.20;;
36651;SDS011;53334;51.976;20.144;2024-02-26T14:37:18;7.78;;;6.05;;
36651;SDS011;53334;51.976;20.144;2024-02-26T14:39:51;10.82;;;5.53;;
36651;SDS011;53334;51.976;20.144;2024-02-26T14:42:26;10.70;;;6.15;;
36651;SDS011;53334;51.976;20.144;2024-02-26T14:44:59;7.05;;;5.30;;
36651;SDS011;53334;51.976;20.144;2024-02-26T14:47:33;8.82;;;6.78;;
36651;SDS011;53334;51.976;20.144;2024-02-26T14:50:06;9.82;;;6.05;;
36651;SDS011;53334;51.976;20.144;2024-02-26T14:52:40;9.45;;;6.10;;
36651;SDS011;53334;51.976;20.144;2024-02-26T14:55:13;12.38;;;6.18;;
36651;SDS011;53334;51.976;20.144;2024-02-26T14:57:48;6.93;;;5.80;;
36651;SDS011;53334;51.976;20.144;2024-02-26T15:00:21;8.00;;;5.82;;
36651;SDS011;53334;51.976;20.144;2024-02-26T15:02:54;9.73;;;6.22;;
36651;SDS011;53334;51.976;20.144;2024-02-26T15:05:27;10.13;;;5.43;;
36651;SDS011;53334;51.976;20.144;2024-02-26T15:08:01;8.43;;;6.13;;
36651;SDS011;53334;51.976;20.144;2024-02-26T15:10:34;8.65;;;5.90;;
36651;SDS011;53334;51.976;20.144;2024-02-26T15:13:09;8.73;;;6.97;;
36651;SDS011;53334;51.976;20.144;2024-02-26T15:15:42;9.93;;;5.72;;
36651;SDS011;53334;51.976;20.144;2024-02-26T15:18:16;14.48;;;6.85;;
36651;SDS011;53334;51.976;20.144;2024-02-26T15:20:49;6.15;;;5.55;;
36651;SDS011;53334;51.976;20.144;2024-02-26T15:23:23;13.88;;;6.30;;
36651;SDS011;53334;51.976;20.144;2024-02-26T15:25:59;11.55;;;5.47;;
36651;SDS011;53334;51.976;20.144;2024-02-26T15:28:34;18.10;;;7.38;;
36651;SDS011;53334;51.976;20.144;2024-02-26T15:31:07;14.32;;;7.30;;
36651;SDS011;53334;51.976;20.144;2024-02-26T15:33:45;8.85;;;6.15;;